createdAt,value
2023-05-21T00:00:30.736Z,25.00
2023-05-21T00:02:59.300Z,24.77
2023-05-21T00:05:26.828Z,22.55
2023-05-21T00:07:54.964Z,24.58
2023-05-21T00:10:22.285Z,24.48
2023-05-21T00:12:49.553Z,25.30
2023-05-21T00:15:16.804Z,23.67
2023-05-21T00:17:44.573Z,23.92
2023-05-21T00:20:12.837Z,22.83
2023-05-21T00:22:42.324Z,25.13
2023-05-21T00:25:10.125Z,23.52
2023-05-21T00:27:37.344Z,22.20
2023-05-21T00:30:05.134Z,24.08
2023-05-21T00:32:32.450Z,23.80
2023-05-21T00:34:59.826Z,23.48
2023-05-21T00:37:29.873Z,25.27
2023-05-21T00:39:58.404Z,25.88
2023-05-21T00:42:27.442Z,25.38
2023-05-21T00:44:54.621Z,25.98
2023-05-21T00:47:22.269Z,23.83
2023-05-21T00:49:51.543Z,24.33
2023-05-21T00:52:20.389Z,24.98
2023-05-21T00:54:49.403Z,24.30
2023-05-21T00:57:17.647Z,25.30
2023-05-21T00:59:45.380Z,26.83
2023-05-21T01:02:14.265Z,25.08
2023-05-21T01:04:41.568Z,24.67
2023-05-21T01:07:09.996Z,26.45
2023-05-21T01:09:37.330Z,25.23
2023-05-21T01:12:04.881Z,24.90
2023-05-21T01:14:32.915Z,25.77
2023-05-21T01:17:02.221Z,25.92
2023-05-21T01:19:29.795Z,25.58
2023-05-21T01:22:07.562Z,24.08
2023-05-21T01:24:35.491Z,26.50
2023-05-21T01:27:03.777Z,25.83
2023-05-21T01:29:31.106Z,27.52
2023-05-21T01:32:17.103Z,25.70
2023-05-21T01:35:03.264Z,26.40
2023-05-21T01:37:32.164Z,25.35
2023-05-21T01:40:03.934Z,26.20
2023-05-21T01:42:31.578Z,26.00
2023-05-21T01:45:00.458Z,24.40
2023-05-21T01:47:28.123Z,24.80
2023-05-21T01:49:55.700Z,24.25
2023-05-21T01:52:22.898Z,25.58
2023-05-21T01:54:51.383Z,25.23
2023-05-21T01:57:18.720Z,25.90
2023-05-21T01:59:47.862Z,24.83
2023-05-21T02:02:15.245Z,23.88
2023-05-21T02:04:44.095Z,25.65
2023-05-21T02:07:11.451Z,24.05
2023-05-21T02:09:38.768Z,24.20
2023-05-21T02:12:06.151Z,24.02
2023-05-21T02:14:36.347Z,25.65
2023-05-21T02:17:03.559Z,26.27
2023-05-21T02:19:30.751Z,24.63
2023-05-21T02:21:57.972Z,25.55
2023-05-21T02:24:25.116Z,25.60
2023-05-21T02:26:52.502Z,24.58
2023-05-21T02:29:20.060Z,26.38
2023-05-21T02:31:47.288Z,23.40
2023-05-21T02:34:14.608Z,24.50
2023-05-21T02:36:41.944Z,26.30
2023-05-21T02:39:09.265Z,26.10
2023-05-21T02:41:37.662Z,26.08
2023-05-21T02:44:05.083Z,27.80
2023-05-21T02:46:32.396Z,24.98
2023-05-21T02:48:59.580Z,25.40
2023-05-21T02:51:26.799Z,26.27
2023-05-21T02:53:54.016Z,27.70
2023-05-21T02:56:22.215Z,27.52
2023-05-21T02:58:49.839Z,26.33
2023-05-21T03:01:17.130Z,27.05
2023-05-21T03:03:44.564Z,27.02
2023-05-21T03:06:11.756Z,26.92
2023-05-21T03:08:39.433Z,26.10
2023-05-21T03:11:06.607Z,25.90
2023-05-21T03:13:33.917Z,28.80
2023-05-21T03:16:01.140Z,24.50
2023-05-21T03:18:29.148Z,24.35
2023-05-21T03:20:58.834Z,27.90
2023-05-21T03:23:26.952Z,27.08
2023-05-21T03:25:54.223Z,25.45
2023-05-21T03:28:21.505Z,25.48
2023-05-21T03:30:51.027Z,28.67
2023-05-21T03:33:18.523Z,25.08
2023-05-21T03:35:45.829Z,26.65
2023-05-21T03:38:13.089Z,25.10
2023-05-21T03:40:40.549Z,26.02
2023-05-21T03:43:07.863Z,26.38
2023-05-21T03:45:35.275Z,26.80
2023-05-21T03:48:02.729Z,26.67
2023-05-21T03:50:30.024Z,26.73
2023-05-21T03:52:57.243Z,29.55
2023-05-21T03:55:24.436Z,34.97
2023-05-21T03:57:51.598Z,26.40
2023-05-21T04:00:18.964Z,28.60
2023-05-21T04:02:47.002Z,30.85
2023-05-21T04:05:14.317Z,28.42
2023-05-21T04:07:42.977Z,28.25
2023-05-21T04:10:10.239Z,26.10
2023-05-21T04:12:37.479Z,24.80
2023-05-21T04:15:04.861Z,26.52
2023-05-21T04:17:33.371Z,26.73
2023-05-21T04:20:00.751Z,24.90
2023-05-21T04:22:28.022Z,27.20
2023-05-21T04:24:55.280Z,26.33
2023-05-21T04:27:25.905Z,26.00
2023-05-21T04:29:54.807Z,26.17
2023-05-21T04:32:22.202Z,25.38
2023-05-21T04:34:49.892Z,24.58
2023-05-21T04:37:19.957Z,27.52
2023-05-21T04:39:48.111Z,24.63
2023-05-21T04:42:15.308Z,24.10
2023-05-21T04:44:44.497Z,24.13
2023-05-21T04:47:14.909Z,23.25
2023-05-21T04:49:42.268Z,24.90
2023-05-21T04:52:09.552Z,22.00
2023-05-21T04:54:39.129Z,21.10
2023-05-21T04:57:07.409Z,21.55
2023-05-21T04:59:35.017Z,22.15
2023-05-21T05:02:02.229Z,22.52
2023-05-21T05:04:29.423Z,20.52
2023-05-21T05:06:56.614Z,19.83
2023-05-21T05:09:25.249Z,20.00
2023-05-21T05:11:52.518Z,19.92
2023-05-21T05:14:19.888Z,19.02
2023-05-21T05:16:48.335Z,18.58
2023-05-21T05:19:15.660Z,17.92
2023-05-21T05:21:42.974Z,17.73
2023-05-21T05:24:10.168Z,17.90
2023-05-21T05:26:37.398Z,16.67
2023-05-21T05:29:04.714Z,17.02
2023-05-21T05:31:31.973Z,16.70
2023-05-21T05:33:59.259Z,15.98
2023-05-21T05:36:27.196Z,16.63
2023-05-21T05:38:54.425Z,16.33
2023-05-21T05:41:21.670Z,16.92
2023-05-21T05:43:48.906Z,16.73
2023-05-21T05:46:16.646Z,17.38
2023-05-21T05:48:43.896Z,17.83
2023-05-21T05:51:12.014Z,17.50
2023-05-21T05:53:39.309Z,17.52
2023-05-21T05:56:06.737Z,18.27
2023-05-21T05:58:35.178Z,19.48
2023-05-21T06:01:04.502Z,17.27
2023-05-21T06:03:31.929Z,19.48
2023-05-21T06:05:59.270Z,19.15
2023-05-21T06:08:26.720Z,22.77
2023-05-21T06:10:53.974Z,22.85
2023-05-21T06:13:21.264Z,22.08
2023-05-21T06:15:48.499Z,21.88
2023-05-21T06:18:15.966Z,26.77
2023-05-21T06:20:43.488Z,28.17
2023-05-21T06:23:10.785Z,27.13
2023-05-21T06:25:38.514Z,25.30
2023-05-21T06:28:05.854Z,24.55
2023-05-21T06:30:33.152Z,24.25
2023-05-21T06:33:00.542Z,22.08
2023-05-21T06:35:27.898Z,21.95
2023-05-21T06:37:55.387Z,21.80
2023-05-21T06:40:22.686Z,24.55
2023-05-21T06:42:49.961Z,24.08
2023-05-21T06:45:17.292Z,23.25
2023-05-21T06:47:44.522Z,23.52
2023-05-21T06:50:11.790Z,22.83
2023-05-21T06:52:38.955Z,21.20
2023-05-21T06:55:07.185Z,21.70
2023-05-21T06:57:34.449Z,17.90
2023-05-21T07:00:01.898Z,18.75
2023-05-21T07:02:29.268Z,18.52
2023-05-21T07:04:56.916Z,18.35
2023-05-21T07:07:24.098Z,18.20
2023-05-21T07:09:51.435Z,17.92
2023-05-21T07:12:18.679Z,18.60
2023-05-21T07:14:45.887Z,17.70
2023-05-21T07:17:13.089Z,17.00
2023-05-21T07:19:40.304Z,18.17
2023-05-21T07:22:07.515Z,16.98
2023-05-21T07:24:34.693Z,17.35
2023-05-21T07:27:06.496Z,17.73
2023-05-21T07:29:38.742Z,15.88
2023-05-21T07:32:06.254Z,17.30
2023-05-21T07:34:33.400Z,17.20
2023-05-21T07:37:00.988Z,16.55
2023-05-21T07:39:28.175Z,17.35
2023-05-21T07:41:55.414Z,15.07
2023-05-21T07:44:22.586Z,14.75
2023-05-21T07:46:49.870Z,15.60
2023-05-21T07:49:17.218Z,14.77
2023-05-21T07:51:45.053Z,14.55
2023-05-21T07:54:12.296Z,14.05
2023-05-21T07:56:39.486Z,14.13
2023-05-21T07:59:07.003Z,13.45
2023-05-21T08:01:34.463Z,16.23
2023-05-21T08:04:05.764Z,14.15
2023-05-21T08:06:37.727Z,14.98
2023-05-21T08:09:06.380Z,14.85
2023-05-21T08:11:33.656Z,15.43
2023-05-21T08:14:01.118Z,15.05
2023-05-21T08:16:28.359Z,14.38
2023-05-21T08:18:55.693Z,14.02
2023-05-21T08:21:23.128Z,14.73
2023-05-21T08:23:50.459Z,13.45
2023-05-21T08:26:17.769Z,14.07
2023-05-21T08:28:45.054Z,13.95
2023-05-21T08:31:12.496Z,14.45
2023-05-21T08:33:39.794Z,13.75
2023-05-21T08:36:07.695Z,13.80
2023-05-21T08:38:36.353Z,14.23
2023-05-21T08:41:05.410Z,13.95
2023-05-21T08:43:32.842Z,13.07
2023-05-21T08:46:01.370Z,13.85
2023-05-21T08:48:29.042Z,13.52
2023-05-21T08:50:56.286Z,13.50
2023-05-21T08:53:28.713Z,12.55
2023-05-21T08:55:57.538Z,13.55
2023-05-21T08:58:25.157Z,13.88
2023-05-21T09:00:52.443Z,13.77
2023-05-21T09:03:22.482Z,12.27
2023-05-21T09:05:51.847Z,11.90
2023-05-21T09:08:19.947Z,13.68
2023-05-21T09:10:50.274Z,13.32
2023-05-21T09:13:18.315Z,12.55
2023-05-21T09:15:46.055Z,12.40
2023-05-21T09:18:14.123Z,11.98
2023-05-21T09:20:41.499Z,11.88
2023-05-21T09:23:16.668Z,11.98
2023-05-21T09:25:52.108Z,12.45
2023-05-21T09:28:20.215Z,12.35
2023-05-21T09:30:48.324Z,11.10
2023-05-21T09:33:25.924Z,12.18
2023-05-21T09:35:53.157Z,11.52
2023-05-21T09:38:22.751Z,11.32
2023-05-21T09:40:50.042Z,10.93
2023-05-21T09:43:17.474Z,11.30
2023-05-21T09:45:51.985Z,12.35
2023-05-21T09:48:33.014Z,9.77
2023-05-21T09:51:13.864Z,9.98
2023-05-21T09:53:50.812Z,11.35
2023-05-21T09:56:32.331Z,11.32
2023-05-21T09:59:01.950Z,11.52
2023-05-21T10:01:31.861Z,10.88
2023-05-21T10:04:00.328Z,9.90
2023-05-21T10:06:28.594Z,10.07
2023-05-21T10:08:57.517Z,9.30
2023-05-21T10:11:27.125Z,11.68
2023-05-21T10:13:58.103Z,10.45
2023-05-21T10:16:25.841Z,9.77
2023-05-21T10:18:55.212Z,9.43
2023-05-21T10:21:23.648Z,8.57
2023-05-21T10:23:51.693Z,8.48
2023-05-21T10:26:21.661Z,8.30
2023-05-21T10:28:50.608Z,8.57
2023-05-21T10:31:17.973Z,7.97
2023-05-21T10:33:45.406Z,6.72
2023-05-21T10:36:12.819Z,7.30
2023-05-21T10:38:40.341Z,5.57
2023-05-21T10:41:08.205Z,5.57
2023-05-21T10:43:42.537Z,6.25
2023-05-21T10:46:24.860Z,5.72
2023-05-21T10:48:52.126Z,6.05
2023-05-21T10:51:34.654Z,5.38
2023-05-21T10:54:09.387Z,5.50
2023-05-21T10:56:46.462Z,5.70
2023-05-21T10:59:22.335Z,5.63
2023-05-21T11:01:53.048Z,4.95
2023-05-21T11:04:24.198Z,5.47
2023-05-21T11:06:51.511Z,5.30
2023-05-21T11:09:18.747Z,5.43
2023-05-21T11:11:48.436Z,5.50
2023-05-21T11:14:40.836Z,5.63
2023-05-21T11:17:08.023Z,5.43
2023-05-21T11:19:37.047Z,5.50
2023-05-21T11:22:08.604Z,5.22
2023-05-21T11:24:39.016Z,5.18
2023-05-21T11:27:07.170Z,5.13
2023-05-21T11:29:41.346Z,5.38
2023-05-21T11:32:09.400Z,5.22
2023-05-21T11:34:40.850Z,5.70
2023-05-21T11:37:17.337Z,6.15
2023-05-21T11:39:45.497Z,5.43
2023-05-21T11:42:12.719Z,5.43
2023-05-21T11:44:47.845Z,5.70
2023-05-21T11:47:16.196Z,5.78
2023-05-21T11:49:43.727Z,5.07
2023-05-21T11:52:11.834Z,5.63
2023-05-21T11:54:41.641Z,6.00
2023-05-21T11:57:09.241Z,5.32
2023-05-21T11:59:37.065Z,5.15
2023-05-21T12:02:04.985Z,4.53
2023-05-21T12:04:32.691Z,4.85
2023-05-21T12:07:00.033Z,5.15
2023-05-21T12:09:27.448Z,5.20
2023-05-21T12:11:54.745Z,5.00
2023-05-21T12:14:23.072Z,5.35
2023-05-21T12:16:50.490Z,4.75
2023-05-21T12:19:19.526Z,5.15
2023-05-21T12:21:46.802Z,5.13
2023-05-21T12:24:14.220Z,4.82
2023-05-21T12:26:42.110Z,4.90
2023-05-21T12:29:09.649Z,5.25
2023-05-21T12:31:48.472Z,5.15
2023-05-21T12:34:18.734Z,4.57
2023-05-21T12:36:48.235Z,4.38
2023-05-21T12:39:16.249Z,4.82
2023-05-21T12:41:44.255Z,4.93
2023-05-21T12:44:12.635Z,4.95
2023-05-21T12:46:40.045Z,5.13
2023-05-21T12:49:10.755Z,5.35
2023-05-21T12:51:46.186Z,5.00
2023-05-21T12:54:14.101Z,5.60
2023-05-21T12:56:47.766Z,4.50
2023-05-21T12:59:17.965Z,5.20
2023-05-21T13:01:48.248Z,5.60
2023-05-21T13:04:15.590Z,5.88
2023-05-21T13:06:45.818Z,6.22
2023-05-21T13:09:13.084Z,5.15
2023-05-21T13:11:40.435Z,5.45
2023-05-21T13:14:07.826Z,5.03
2023-05-21T13:16:35.187Z,5.38
2023-05-21T13:19:02.640Z,5.18
2023-05-21T13:21:29.894Z,4.93
2023-05-21T13:23:57.066Z,5.20
2023-05-21T13:26:24.267Z,5.95
2023-05-21T13:28:51.468Z,6.03
2023-05-21T13:31:18.647Z,5.22
2023-05-21T13:33:45.936Z,5.55
2023-05-21T13:36:13.153Z,5.20
2023-05-21T13:38:40.472Z,5.28
2023-05-21T13:41:07.699Z,5.32
2023-05-21T13:43:35.176Z,4.65
2023-05-21T13:46:02.699Z,7.20
2023-05-21T13:48:29.963Z,5.32
2023-05-21T13:50:57.198Z,5.45
2023-05-21T13:53:24.601Z,5.22
2023-05-21T13:55:51.940Z,5.30
2023-05-21T13:58:19.270Z,12.77
2023-05-21T14:00:46.540Z,5.40
2023-05-21T14:03:14.068Z,5.85
2023-05-21T14:05:41.304Z,5.78
2023-05-21T14:08:08.548Z,5.63
2023-05-21T14:10:36.049Z,6.32
2023-05-21T14:13:11.846Z,5.10
2023-05-21T14:15:46.101Z,5.50
2023-05-21T14:18:13.375Z,5.30
2023-05-21T14:20:40.654Z,4.97
2023-05-21T14:23:09.403Z,5.22
2023-05-21T14:25:37.239Z,5.43
2023-05-21T14:28:04.580Z,4.78
2023-05-21T14:30:31.824Z,4.72
2023-05-21T14:32:59.030Z,5.60
2023-05-21T14:35:29.374Z,5.20
2023-05-21T14:37:56.541Z,5.25
2023-05-21T14:40:23.847Z,5.22
2023-05-21T14:42:52.905Z,5.57
2023-05-21T14:45:20.206Z,4.60
2023-05-21T14:47:47.856Z,4.55
2023-05-21T14:50:16.060Z,4.95
2023-05-21T14:52:43.386Z,5.43
2023-05-21T14:55:10.924Z,5.10
2023-05-21T14:57:38.091Z,5.20
2023-05-21T15:00:05.669Z,4.63
2023-05-21T15:02:33.293Z,4.65
2023-05-21T15:05:00.575Z,4.55
2023-05-21T15:07:27.749Z,4.78
2023-05-21T15:09:54.953Z,4.50
2023-05-21T15:12:22.217Z,4.18
2023-05-21T15:14:50.016Z,4.60
2023-05-21T15:17:17.520Z,5.00
2023-05-21T15:19:44.690Z,4.40
2023-05-21T15:22:11.942Z,4.90
2023-05-21T15:24:39.183Z,4.90
2023-05-21T15:27:06.827Z,4.75
2023-05-21T15:29:34.097Z,5.15
2023-05-21T15:32:05.032Z,4.85
2023-05-21T15:34:32.817Z,5.00
2023-05-21T15:37:00.159Z,4.55
2023-05-21T15:39:27.910Z,5.10
2023-05-21T15:41:55.340Z,4.90
2023-05-21T15:44:22.739Z,5.03
2023-05-21T15:46:50.059Z,5.35
2023-05-21T15:49:17.405Z,5.15
2023-05-21T15:51:46.424Z,5.18
2023-05-21T15:54:13.968Z,5.10
2023-05-21T15:56:42.468Z,5.38
2023-05-21T15:59:09.709Z,4.90
2023-05-21T16:01:37.032Z,5.22
2023-05-21T16:04:04.328Z,5.00
2023-05-21T16:06:31.746Z,5.32
2023-05-21T16:08:59.260Z,5.63
2023-05-21T16:11:27.069Z,5.20
2023-05-21T16:13:54.725Z,5.35
2023-05-21T16:16:24.523Z,5.53
2023-05-21T16:18:52.083Z,5.47
2023-05-21T16:21:19.346Z,5.30
2023-05-21T16:23:46.614Z,5.68
2023-05-21T16:26:13.952Z,5.38
2023-05-21T16:28:41.952Z,5.90
2023-05-21T16:31:10.810Z,5.55
2023-05-21T16:33:38.080Z,5.43
2023-05-21T16:36:05.316Z,5.55
2023-05-21T16:38:32.611Z,5.97
2023-05-21T16:41:00.204Z,5.88
2023-05-21T16:43:27.461Z,5.80
2023-05-21T16:45:54.682Z,6.15
2023-05-21T16:48:21.975Z,5.72
2023-05-21T16:50:49.252Z,5.78
2023-05-21T16:53:16.744Z,5.40
2023-05-21T16:55:44.073Z,5.93
2023-05-21T16:58:13.526Z,5.80
2023-05-21T17:00:40.794Z,5.60
2023-05-21T17:03:08.066Z,5.80
2023-05-21T17:05:35.474Z,5.55
2023-05-21T17:08:02.960Z,5.47
2023-05-21T17:10:30.840Z,5.18
2023-05-21T17:13:01.750Z,5.57
2023-05-21T17:15:31.424Z,5.32
2023-05-21T17:18:00.569Z,5.50
2023-05-21T17:20:27.974Z,5.68
2023-05-21T17:22:55.194Z,5.38
2023-05-21T17:25:22.384Z,5.53
2023-05-21T17:27:50.839Z,5.78
2023-05-21T17:30:18.204Z,5.60
2023-05-21T17:32:45.744Z,5.65
2023-05-21T17:35:12.948Z,5.70
2023-05-21T17:37:40.198Z,5.88
2023-05-21T17:40:07.837Z,5.30
2023-05-21T17:42:35.065Z,5.68
2023-05-21T17:45:05.045Z,5.18
2023-05-21T17:47:34.544Z,5.60
2023-05-21T17:50:01.765Z,5.25
2023-05-21T17:52:28.962Z,5.85
2023-05-21T17:54:56.211Z,5.70
2023-05-21T17:57:23.498Z,6.38
2023-05-21T17:59:50.824Z,6.15
2023-05-21T18:02:18.095Z,5.72
2023-05-21T18:04:45.459Z,5.82
2023-05-21T18:07:12.743Z,6.35
2023-05-21T18:09:39.941Z,6.30
2023-05-21T18:12:07.906Z,6.63
2023-05-21T18:14:35.229Z,6.05
2023-05-21T18:17:02.567Z,6.22
2023-05-21T18:19:30.390Z,6.20
2023-05-21T18:21:58.129Z,6.15
2023-05-21T18:24:25.450Z,6.07
2023-05-21T18:26:52.645Z,6.60
2023-05-21T18:29:19.885Z,6.45
2023-05-21T18:31:47.142Z,6.10
2023-05-21T18:34:15.586Z,6.32
2023-05-21T18:36:42.826Z,6.93
2023-05-21T18:39:10.353Z,6.68
2023-05-21T18:41:37.744Z,8.90
2023-05-21T18:44:06.159Z,11.52
2023-05-21T18:46:33.546Z,9.05
2023-05-21T18:49:00.924Z,9.73
2023-05-21T18:51:28.188Z,8.80
2023-05-21T18:53:55.528Z,7.97
2023-05-21T18:56:22.818Z,7.75
2023-05-21T18:58:50.096Z,7.57
2023-05-21T19:01:18.276Z,7.57
2023-05-21T19:03:45.612Z,8.00
2023-05-21T19:06:12.839Z,8.07
2023-05-21T19:08:41.290Z,8.00
2023-05-21T19:11:08.930Z,8.40
2023-05-21T19:13:37.238Z,8.27
2023-05-21T19:16:04.640Z,8.43
2023-05-21T19:18:32.644Z,7.90
2023-05-21T19:21:00.585Z,8.27
2023-05-21T19:23:28.314Z,8.35
2023-05-21T19:25:56.087Z,8.15
2023-05-21T19:28:23.281Z,9.20
2023-05-21T19:30:50.662Z,8.25
2023-05-21T19:33:17.980Z,8.48
2023-05-21T19:35:45.415Z,8.52
2023-05-21T19:38:12.771Z,8.52
2023-05-21T19:40:40.022Z,8.73
2023-05-21T19:43:07.236Z,8.50
2023-05-21T19:45:34.555Z,8.70
2023-05-21T19:48:01.833Z,8.88
2023-05-21T19:50:29.157Z,8.88
2023-05-21T19:52:57.490Z,8.88
2023-05-21T19:55:25.008Z,8.35
2023-05-21T19:57:52.368Z,8.52
2023-05-21T20:00:19.975Z,9.10
2023-05-21T20:02:47.297Z,8.52
2023-05-21T20:05:14.536Z,8.82
2023-05-21T20:07:41.948Z,8.88
2023-05-21T20:10:09.402Z,9.30
2023-05-21T20:12:36.938Z,9.10
2023-05-21T20:15:05.609Z,8.90
2023-05-21T20:17:34.216Z,9.27
2023-05-21T20:20:10.344Z,9.75
2023-05-21T20:22:37.626Z,8.95
2023-05-21T20:25:06.568Z,10.15
2023-05-21T20:27:35.182Z,9.27
2023-05-21T20:30:02.387Z,9.25
2023-05-21T20:32:29.663Z,9.50
2023-05-21T20:35:03.207Z,10.25
2023-05-21T20:37:32.563Z,9.60
2023-05-21T20:40:00.066Z,10.65
2023-05-21T20:42:35.105Z,10.55
2023-05-21T20:45:03.000Z,10.18
2023-05-21T20:47:30.436Z,9.77
2023-05-21T20:49:57.986Z,10.23
2023-05-21T20:52:25.296Z,10.10
2023-05-21T20:54:54.766Z,10.88
2023-05-21T20:57:26.222Z,11.25
2023-05-21T20:59:53.811Z,10.63
2023-05-21T21:02:21.763Z,10.85
2023-05-21T21:04:49.893Z,10.45
2023-05-21T21:07:20.466Z,11.35
2023-05-21T21:09:48.004Z,10.55
2023-05-21T21:14:48.080Z,11.60
2023-05-21T21:17:15.791Z,11.43
2023-05-21T21:19:43.345Z,10.43
2023-05-21T21:22:10.641Z,10.23
2023-05-21T21:24:37.890Z,10.60
2023-05-21T21:27:05.172Z,10.65
2023-05-21T21:29:32.609Z,11.13
2023-05-21T21:31:59.887Z,10.85
2023-05-21T21:34:27.101Z,11.10
2023-05-21T21:36:54.863Z,11.73
2023-05-21T21:39:22.322Z,11.60
2023-05-21T21:41:49.571Z,10.52
2023-05-21T21:44:16.793Z,11.05
2023-05-21T21:46:44.047Z,11.40
2023-05-21T21:49:11.251Z,11.40
2023-05-21T21:51:39.591Z,12.15
2023-05-21T21:54:06.808Z,11.73
2023-05-21T21:56:34.120Z,11.25
2023-05-21T21:59:01.294Z,10.85
2023-05-21T22:01:28.533Z,11.45
2023-05-21T22:03:56.713Z,11.30
2023-05-21T22:06:24.052Z,12.77
2023-05-21T22:08:51.255Z,12.32
2023-05-21T22:11:18.705Z,12.82
2023-05-21T22:13:46.157Z,12.18
2023-05-21T22:16:13.467Z,12.52
2023-05-21T22:18:41.933Z,12.07
2023-05-21T22:21:10.862Z,12.32
2023-05-21T22:23:38.624Z,12.75
2023-05-21T22:26:05.992Z,12.23
2023-05-21T22:28:33.592Z,12.70
2023-05-21T22:31:00.916Z,12.50
2023-05-21T22:33:29.363Z,12.13
2023-05-21T22:35:56.961Z,13.02
2023-05-21T22:38:24.319Z,12.52
2023-05-21T22:40:51.578Z,12.77
2023-05-21T22:43:18.810Z,12.95
2023-05-21T22:45:46.527Z,12.48
2023-05-21T22:48:14.269Z,12.45
2023-05-21T22:50:41.627Z,13.15
2023-05-21T22:53:08.954Z,13.45
2023-05-21T22:55:36.223Z,13.57
2023-05-21T22:58:03.687Z,12.77
2023-05-21T23:00:31.132Z,13.48
2023-05-21T23:02:58.380Z,12.98
2023-05-21T23:05:25.823Z,13.50
2023-05-21T23:07:53.098Z,14.68
2023-05-21T23:10:20.434Z,13.85
2023-05-21T23:12:47.658Z,13.10
2023-05-21T23:15:14.847Z,13.55
2023-05-21T23:17:42.188Z,14.65
2023-05-21T23:20:09.755Z,14.70
2023-05-21T23:22:37.547Z,13.32
2023-05-21T23:25:04.891Z,14.38
2023-05-21T23:27:32.134Z,14.15
2023-05-21T23:29:59.317Z,14.65
2023-05-21T23:32:27.333Z,14.95
2023-05-21T23:34:54.556Z,14.68
2023-05-21T23:37:21.799Z,13.98
2023-05-21T23:39:49.884Z,14.45
2023-05-21T23:42:17.409Z,16.45
2023-05-21T23:44:44.663Z,16.17
2023-05-21T23:47:11.881Z,14.48
2023-05-21T23:49:39.748Z,16.10
2023-05-21T23:52:07.269Z,15.23
2023-05-21T23:54:34.503Z,16.67
2023-05-21T23:57:02.212Z,15.55
2023-05-21T23:59:29.452Z,16.63
